Flight Track Log - Related Links

Times and Time Zones

All times are in EDT time to prevent confusion due to time zone crossing. See the N589H flight status page for this flight to view local times or setup timezone preferences in your user account.

Time Position Orientation Groundspeed Altitude Reporting Facility
EDT Latitude Longitude Course Direction KTS MPH feet Rate Location/Type
Fri 12:12:41 PM 27.9000 -82.6833 180° South 120 138 700  Level Tampa TRACON
Fri 12:12:53 PM 27.8833 -82.6833 180° South 129 148 1,000 2,167 Climbing Tampa TRACON
Fri 12:13:53 PM 27.8500 -82.7000 204° Southwest 166 191 3,300 1,959 Climbing Tampa TRACON
Fri 12:16:06 PM 27.7489 -82.6797 170° South 185 213 7,300 1,865 Climbing Miami Center
Fri 12:17:06 PM 27.6933 -82.6581 173° South 197 227 9,300 1,900 Climbing Miami Center
Fri 12:18:06 PM 27.6425 -82.6275 152° Southeast 209 241 11,100 1,750 Climbing Miami Center
Fri 12:19:06 PM 27.5894 -82.5919 149° Southeast 214 246 12,800 950 Climbing Miami Center
Fri 12:20:06 PM 27.5261 -82.5583 155° Southeast 230 265 13,000 100 Climbing Miami Center
Fri 12:21:06 PM 27.4547 -82.5175 153° Southeast 265 305 13,000 -50 Level Miami Center
Fri 12:22:06 PM 27.3833 -82.4742 152° Southeast 286 329 12,900  Descending Miami Center
Fri 12:23:06 PM 27.3139 -82.4356 154° Southeast 286 329 13,000 50 Climbing Miami Center
Fri 12:24:06 PM 27.2425 -82.3950 153° Southeast 286 329 13,000 50 Level Miami Center
Fri 12:25:06 PM 27.1692 -82.3517 152° Southeast 297 342 13,100 -350 Climbing Miami Center
Fri 12:26:06 PM 27.0975 -82.3111 153° Southeast 297 342 12,300 -900 Descending Miami Center
Fri 12:27:06 PM 27.0261 -82.2681 152° Southeast 297 342 11,300 -700 Descending Miami Center
Fri 12:28:06 PM 26.9547 -82.2253 152° Southeast 297 342 10,900 -950 Descending Miami Center
Fri 12:29:06 PM 26.8853 -82.1825 151° Southeast 292 336 9,400 -1,450 Descending Miami Center
Fri 12:30:06 PM 26.8178 -82.1444 153° Southeast 280 322 8,000 -1,450 Descending Miami Center
Fri 12:31:06 PM 26.7442 -82.1017 153° Southeast 280 322 6,500 -1,300 Descending Miami Center
Fri 12:32:06 PM 26.6808 -82.0639 152° Southeast 274 315 5,400 -750 Descending Miami Center
Fri 12:33:06 PM 26.6194 -82.0264 151° Southeast 263 303 5,000 -200 Descending Miami Center
Fri 12:34:06 PM 26.5581 -81.9911 153° Southeast 257 296 5,000 -400 Level Miami Center
Fri 12:35:06 PM 26.4947 -81.9583 155° Southeast 257 296 4,200 -800 Descending Miami Center
Fri 12:37:00 PM 26.3873 -81.8971 149° Southeast  Level FlightAware Approximate
Fri 12:44:00 PM 26.1500 -81.7667 156° South  Level FlightAware Approximate
Fri 12:45:00 PM 26.1524 -81.7756 90° East  Level Estimated
Fri 12:46:00 PM 26.1524 -81.7756 156° South  Level Estimated
Fri 12:47:00 PM 26.1524 -81.7756 107° East  Level Estimated
Fri 12:48:00 PM 26.1524 -81.7756 156° South  Level Estimated
Fri 12:49:00 PM 26.1524 -81.7756 107° East  Level Estimated

Login

Don't have an account? Register now (free) for customized features, flight alerts, and more!